Time;durP1;ratioP1;P1;durP2;ratioP2;P2;SDS_P1;SDS_P2;PMS_P1;PMS_P2;Temp;Humidity;BMP_temperature;BMP_pressure;BME280_temperature;BME280_humidity;BME280_pressure;Samples;Min_cycle;Max_cycle;Signal;HPM_P1;HPM_P2
2022/05/16 00:00:11;;;;;;;4.78;1.88;;;20.90;54.40;;;;;;4476499;32;20101;-75
2022/05/16 00:02:37;;;;;;;4.72;1.48;;;20.90;54.40;;;;;;4481295;32;20073;-75
2022/05/16 00:05:03;;;;;;;4.03;1.63;;;20.90;54.40;;;;;;4480405;32;20076;-75
2022/05/16 00:07:29;;;;;;;4.10;1.60;;;20.90;54.40;;;;;;4481661;31;20144;-75
2022/05/16 00:09:54;;;;;;;3.80;1.77;;;20.90;54.40;;;;;;4481331;31;20077;-75
2022/05/16 00:12:20;;;;;;;4.80;1.70;;;20.90;54.40;;;;;;4481581;31;20084;-75
2022/05/16 00:14:46;;;;;;;4.68;1.52;;;20.90;54.40;;;;;;4481576;31;20076;-75
2022/05/16 00:17:13;;;;;;;4.95;1.80;;;20.90;54.40;;;;;;4481633;31;20073;-75
2022/05/16 00:19:40;;;;;;;4.03;1.67;;;20.90;54.30;;;;;;4481782;32;20081;-75
2022/05/16 00:22:06;;;;;;;5.53;1.65;;;20.90;54.30;;;;;;4481359;31;20095;-75
2022/05/16 00:24:32;;;;;;;3.00;1.42;;;20.90;54.40;;;;;;4481712;31;20084;-75
2022/05/16 00:26:59;;;;;;;3.83;1.70;;;20.90;54.40;;;;;;4481245;31;20073;-75
2022/05/16 00:29:25;;;;;;;4.25;1.90;;;20.90;54.30;;;;;;4481410;32;20071;-75
2022/05/16 00:31:53;;;;;;;4.93;1.98;;;20.90;54.30;;;;;;4481457;31;20089;-75
2022/05/16 00:34:20;;;;;;;5.78;1.80;;;20.80;54.30;;;;;;4481158;31;20406;-75
2022/05/16 00:36:49;;;;;;;4.05;1.80;;;20.80;54.30;;;;;;4481327;31;20202;-75
2022/05/16 00:39:21;;;;;;;3.33;1.30;;;20.90;54.40;;;;;;4481217;31;20074;-75
2022/05/16 00:41:47;;;;;;;3.28;1.52;;;20.80;54.30;;;;;;4481332;31;20073;-75
2022/05/16 00:44:14;;;;;;;2.47;1.40;;;20.80;54.30;;;;;;4481274;31;20089;-75
2022/05/16 00:46:40;;;;;;;3.83;1.60;;;20.80;54.30;;;;;;4480115;32;20079;-75
2022/05/16 00:49:13;;;;;;;3.40;1.35;;;20.80;54.30;;;;;;4481629;31;20592;-75
2022/05/16 00:51:48;;;;;;;2.60;1.33;;;20.80;54.30;;;;;;4481404;32;20496;-75
2022/05/16 00:54:18;;;;;;;4.57;1.60;;;20.80;54.30;;;;;;4481462;31;20065;-75
2022/05/16 00:56:46;;;;;;;3.35;1.33;;;20.80;54.30;;;;;;4481550;31;20073;-75
2022/05/16 00:59:13;;;;;;;5.38;1.70;;;20.80;54.30;;;;;;4481074;31;20249;-74
2022/05/16 01:04:47;;;;;;;4.88;1.83;;;20.80;54.30;;;;;;4463268;32;20129;-75
2022/05/16 01:07:29;;;;;;;3.67;1.42;;;20.80;54.30;;;;;;4477858;31;20093;-75
2022/05/16 01:09:56;;;;;;;3.72;1.50;;;20.80;54.30;;;;;;4481468;31;20278;-75
2022/05/16 01:12:31;;;;;;;4.05;1.38;;;20.80;54.30;;;;;;4480214;31;20120;-75
2022/05/16 01:15:00;;;;;;;3.00;1.35;;;20.80;54.30;;;;;;4478730;32;20070;-74
2022/05/16 01:17:26;;;;;;;2.90;1.33;;;20.80;54.30;;;;;;4478698;31;20081;-75
2022/05/16 01:19:52;;;;;;;3.47;1.30;;;20.70;54.30;;;;;;4478553;31;20104;-75
2022/05/16 01:22:28;;;;;;;2.90;1.45;;;20.70;54.30;;;;;;4478515;31;20069;-75
2022/05/16 01:24:56;;;;;;;3.17;1.58;;;20.70;54.30;;;;;;4478561;32;20100;-76
2022/05/16 01:27:22;;;;;;;2.95;1.40;;;20.70;54.30;;;;;;4478539;31;20108;-75
2022/05/16 01:29:49;;;;;;;3.00;1.10;;;20.80;54.30;;;;;;4477431;32;20250;-75
2022/05/16 01:32:15;;;;;;;3.10;1.33;;;20.70;54.30;;;;;;4478510;31;20526;-75
2022/05/16 01:34:41;;;;;;;2.63;1.20;;;20.80;54.30;;;;;;4478472;32;20550;-75
2022/05/16 01:37:08;;;;;;;2.10;1.02;;;20.70;54.20;;;;;;4478031;32;20530;-75
2022/05/16 01:39:33;;;;;;;2.60;1.23;;;20.70;54.30;;;;;;4478265;31;20077;-75
2022/05/16 01:42:00;;;;;;;3.40;1.30;;;20.70;54.30;;;;;;4477272;32;20155;-74
2022/05/16 01:44:26;;;;;;;3.95;1.33;;;20.70;54.30;;;;;;4477839;32;20093;-75
2022/05/16 01:46:52;;;;;;;3.30;1.25;;;20.70;54.30;;;;;;4477827;31;20070;-75
2022/05/16 01:49:18;;;;;;;5.03;1.38;;;20.70;54.30;;;;;;4478083;31;20519;-75
2022/05/16 01:51:44;;;;;;;4.72;1.38;;;20.70;54.30;;;;;;4463962;32;20074;-75
2022/05/16 01:54:10;;;;;;;3.63;1.30;;;20.70;54.30;;;;;;4478080;31;20527;-75
2022/05/16 01:56:36;;;;;;;2.70;1.35;;;20.70;54.30;;;;;;4478075;31;20085;-75
2022/05/16 01:59:04;;;;;;;2.38;1.23;;;20.70;54.30;;;;;;4478060;32;20082;-75
2022/05/16 02:01:31;;;;;;;1.40;0.80;;;20.60;54.20;;;;;;4478157;31;20091;-75
2022/05/16 02:03:57;;;;;;;2.65;1.15;;;20.70;54.30;;;;;;4477952;31;20092;-75
2022/05/16 02:06:25;;;;;;;2.20;1.02;;;20.60;54.20;;;;;;4478231;32;20073;-75
2022/05/16 02:08:51;;;;;;;2.55;1.40;;;20.60;54.30;;;;;;4477932;32;20525;-75
2022/05/16 02:11:17;;;;;;;3.40;1.10;;;20.60;54.30;;;;;;4476495;32;20074;-75
2022/05/16 02:13:43;;;;;;;3.92;1.60;;;20.60;54.20;;;;;;4477612;31;20207;-75
2022/05/16 02:16:10;;;;;;;4.97;1.50;;;20.60;54.20;;;;;;4477714;32;20143;-75
2022/05/16 02:18:36;;;;;;;2.85;1.15;;;20.60;54.20;;;;;;4477990;32;20402;-75
2022/05/16 02:26:33;;;;;;;2.03;0.88;;;20.60;54.20;;;;;;4477865;32;20179;-74
2022/05/16 02:28:59;;;;;;;2.63;1.20;;;20.60;54.30;;;;;;4477408;31;20218;-75
2022/05/16 02:31:25;;;;;;;2.63;1.27;;;20.60;54.30;;;;;;4477550;31;20083;-75
2022/05/16 02:33:51;;;;;;;2.47;1.20;;;20.60;54.20;;;;;;4477450;31;20069;-75
2022/05/16 02:36:17;;;;;;;1.88;1.00;;;20.60;54.20;;;;;;4477549;31;20070;-75
2022/05/16 02:38:43;;;;;;;2.33;1.20;;;20.60;54.20;;;;;;4477451;31;20519;-75
2022/05/16 02:41:09;;;;;;;3.20;1.23;;;20.60;54.30;;;;;;4477366;31;20202;-75
2022/05/16 02:43:40;;;;;;;2.72;1.40;;;20.50;54.20;;;;;;4477969;31;20093;-75
2022/05/16 02:46:06;;;;;;;2.22;1.00;;;20.50;54.20;;;;;;4477121;31;20522;-75
2022/05/16 02:48:32;;;;;;;2.22;1.20;;;20.50;54.20;;;;;;4477573;32;20506;-74
2022/05/16 02:50:58;;;;;;;2.92;1.05;;;20.60;54.30;;;;;;4477307;31;20062;-75
2022/05/16 02:53:24;;;;;;;2.22;1.30;;;20.50;54.20;;;;;;4477534;32;20155;-75
2022/05/16 02:55:49;;;;;;;1.83;1.00;;;20.50;54.40;;;;;;4477054;32;20407;-75
2022/05/16 02:58:15;;;;;;;1.83;1.02;;;20.50;54.20;;;;;;4477129;32;20395;-75
2022/05/16 03:00:41;;;;;;;2.15;0.98;;;20.50;54.30;;;;;;4477204;32;20096;-75
2022/05/16 03:03:08;;;;;;;1.92;0.80;;;20.50;54.30;;;;;;4476972;31;20598;-75
2022/05/16 03:05:33;;;;;;;1.98;0.95;;;20.50;54.30;;;;;;4475913;32;20074;-75
2022/05/16 03:08:00;;;;;;;2.85;1.00;;;20.50;54.20;;;;;;4476735;31;20081;-75
2022/05/16 03:10:26;;;;;;;2.58;1.05;;;20.50;54.20;;;;;;4476760;32;20632;-75
2022/05/16 03:12:52;;;;;;;2.05;1.15;;;20.50;54.20;;;;;;4477351;31;20473;-75
2022/05/16 03:15:18;;;;;;;2.10;1.00;;;20.50;54.20;;;;;;4477042;32;20081;-75
2022/05/16 03:17:45;;;;;;;2.33;1.10;;;20.50;54.20;;;;;;4476650;32;20500;-75
2022/05/16 03:20:13;;;;;;;2.10;1.05;;;20.50;54.20;;;;;;4476855;31;20077;-75
2022/05/16 03:22:39;;;;;;;2.10;1.05;;;20.50;54.20;;;;;;4476670;31;20195;-75
2022/05/16 03:25:05;;;;;;;2.10;0.82;;;20.50;54.20;;;;;;4476860;31;20065;-75
2022/05/16 03:27:31;;;;;;;1.65;0.77;;;20.50;54.20;;;;;;4476836;31;20399;-75
2022/05/16 03:29:57;;;;;;;2.33;0.85;;;20.50;54.20;;;;;;4476480;31;20069;-75
2022/05/16 03:32:23;;;;;;;1.48;0.88;;;20.40;54.20;;;;;;4476667;31;20069;-75
2022/05/16 03:34:51;;;;;;;1.65;0.98;;;20.40;54.20;;;;;;4476635;31;20124;-75
2022/05/16 03:37:17;;;;;;;1.65;0.90;;;20.40;54.20;;;;;;4475835;32;20087;-75
2022/05/16 03:42:30;;;;;;;1.85;1.05;;;20.40;54.10;;;;;;4476681;32;20167;-75
2022/05/16 03:44:56;;;;;;;2.03;0.93;;;20.40;54.20;;;;;;4476615;31;20088;-75
2022/05/16 03:47:22;;;;;;;1.55;0.82;;;20.40;54.20;;;;;;4476373;32;20566;-75
2022/05/16 03:49:48;;;;;;;1.45;0.82;;;20.40;54.20;;;;;;4476373;32;20159;-74
2022/05/16 03:52:14;;;;;;;2.90;1.00;;;20.40;54.20;;;;;;4475289;32;20505;-75
2022/05/16 03:54:43;;;;;;;2.45;1.05;;;20.40;54.20;;;;;;4476639;32;20097;-75
2022/05/16 03:57:09;;;;;;;2.38;0.95;;;20.40;54.20;;;;;;4476755;32;20536;-75
2022/05/16 03:59:35;;;;;;;2.03;1.00;;;20.40;54.20;;;;;;4476458;32;20207;-75
2022/05/16 04:02:02;;;;;;;2.47;1.13;;;20.40;54.20;;;;;;4476333;32;20461;-75
2022/05/16 04:04:28;;;;;;;2.17;0.95;;;20.40;54.20;;;;;;4475268;32;20085;-75
2022/05/16 04:06:54;;;;;;;2.63;1.25;;;20.40;54.20;;;;;;4476403;32;20061;-75
2022/05/16 04:09:20;;;;;;;1.83;0.70;;;20.40;54.20;;;;;;4476642;32;20607;-75
2022/05/16 04:11:46;;;;;;;2.10;0.90;;;20.40;54.20;;;;;;4475121;32;20061;-75
2022/05/16 04:14:12;;;;;;;1.88;0.90;;;20.40;54.20;;;;;;4476308;32;20101;-75
2022/05/16 04:16:37;;;;;;;1.70;0.95;;;20.40;54.20;;;;;;4476251;32;20076;-75
2022/05/16 04:19:07;;;;;;;0.98;0.68;;;20.30;54.10;;;;;;4476337;32;20076;-75
2022/05/16 04:21:34;;;;;;;2.30;1.20;;;20.30;54.10;;;;;;4476467;32;20530;-75
2022/05/16 04:24:01;;;;;;;2.00;0.88;;;20.30;54.10;;;;;;4476182;32;20203;-76
2022/05/16 04:26:27;;;;;;;1.45;0.80;;;20.30;54.10;;;;;;4476192;32;20084;-75
2022/05/16 04:28:53;;;;;;;2.90;0.98;;;20.30;54.10;;;;;;4476221;32;20096;-75
2022/05/16 04:31:19;;;;;;;1.70;1.13;;;20.30;54.10;;;;;;4476206;32;20148;-75
2022/05/16 04:33:46;;;;;;;2.40;0.93;;;20.30;54.10;;;;;;4475106;32;20552;-75
2022/05/16 04:36:12;;;;;;;1.52;0.80;;;20.30;54.10;;;;;;4476185;32;20255;-75
2022/05/16 04:38:38;;;;;;;1.35;0.80;;;20.30;54.10;;;;;;4475890;32;20074;-75
2022/05/16 04:43:49;;;;;;;1.92;0.93;;;20.30;54.10;;;;;;4476343;32;20085;-75
2022/05/16 04:46:15;;;;;;;1.15;0.82;;;20.30;54.10;;;;;;4474566;32;20074;-75
2022/05/16 04:48:41;;;;;;;1.65;0.70;;;20.30;54.10;;;;;;4477610;32;20407;-75
2022/05/16 04:51:07;;;;;;;1.70;0.82;;;20.30;54.10;;;;;;4479297;32;20120;-75
2022/05/16 04:53:33;;;;;;;1.42;0.80;;;20.30;54.10;;;;;;4479317;32;20085;-75
2022/05/16 04:55:59;;;;;;;1.52;0.82;;;20.30;54.10;;;;;;4479254;31;20058;-75
2022/05/16 04:58:25;;;;;;;1.13;0.70;;;20.30;54.10;;;;;;4478640;31;20096;-75
2022/05/16 05:00:51;;;;;;;2.15;0.70;;;20.30;54.10;;;;;;4479099;31;20121;-75
2022/05/16 05:03:17;;;;;;;1.60;0.90;;;20.30;54.10;;;;;;4478684;31;20465;-75
2022/05/16 05:05:44;;;;;;;1.73;0.77;;;20.30;54.10;;;;;;4478567;31;20093;-75
2022/05/16 05:08:10;;;;;;;2.55;0.77;;;20.30;55.00;;;;;;4478830;32;20084;-75
2022/05/16 05:16:09;;;;;;;2.58;0.80;;;20.30;54.10;;;;;;4478849;32;20100;-75
2022/05/16 05:18:36;;;;;;;1.48;0.80;;;20.30;54.10;;;;;;4479230;31;20198;-75
2022/05/16 05:21:02;;;;;;;1.50;0.80;;;20.30;54.00;;;;;;4478919;31;20127;-75
2022/05/16 05:23:28;;;;;;;1.60;0.75;;;20.30;54.00;;;;;;4478866;31;20089;-75
2022/05/16 05:25:56;;;;;;;2.42;0.90;;;20.30;54.00;;;;;;4478533;31;20368;-75
2022/05/16 05:28:22;;;;;;;1.42;0.75;;;20.30;54.10;;;;;;4477554;32;20137;-75
2022/05/16 05:30:48;;;;;;;1.38;0.73;;;20.30;54.10;;;;;;4478579;31;20074;-75
2022/05/16 05:33:14;;;;;;;0.68;0.52;;;20.30;54.10;;;;;;4478337;31;20069;-75
2022/05/16 05:35:41;;;;;;;1.13;0.70;;;20.30;54.10;;;;;;4478249;31;20057;-75
2022/05/16 05:38:07;;;;;;;1.30;0.77;;;20.30;54.10;;;;;;4478501;31;20071;-75
2022/05/16 05:40:33;;;;;;;1.05;0.55;;;20.30;54.10;;;;;;4478103;31;20128;-75
2022/05/16 05:43:03;;;;;;;0.65;0.52;;;20.30;54.10;;;;;;4477996;32;20073;-75
2022/05/16 05:45:29;;;;;;;1.50;0.75;;;20.30;54.10;;;;;;4478208;31;20135;-74
2022/05/16 05:47:55;;;;;;;0.85;0.60;;;20.30;54.10;;;;;;4477898;31;20552;-75
2022/05/16 05:50:21;;;;;;;1.33;0.60;;;20.30;54.10;;;;;;4477352;32;20073;-75
2022/05/16 05:52:47;;;;;;;1.35;0.70;;;20.30;54.10;;;;;;4478590;31;20076;-74
2022/05/16 05:55:12;;;;;;;1.55;0.50;;;20.30;54.10;;;;;;4478092;31;20106;-74
2022/05/16 05:57:38;;;;;;;1.60;0.90;;;20.30;54.10;;;;;;4478126;31;20086;-74
2022/05/16 06:00:09;;;;;;;1.55;0.77;;;20.30;54.10;;;;;;4476480;32;20078;-74
2022/05/16 06:02:40;;;;;;;1.00;0.60;;;20.30;54.20;;;;;;4478012;31;20065;-74
2022/05/16 06:05:07;;;;;;;2.10;0.68;;;20.30;54.20;;;;;;4478095;31;20502;-74
2022/05/16 06:07:34;;;;;;;1.13;0.63;;;20.30;54.20;;;;;;4478001;31;20104;-75
2022/05/16 06:10:00;;;;;;;1.40;0.70;;;20.30;54.10;;;;;;4477791;31;20077;-75
2022/05/16 06:12:26;;;;;;;2.50;1.00;;;20.30;54.20;;;;;;4478195;31;20083;-74
2022/05/16 06:14:51;;;;;;;1.00;0.60;;;20.30;54.20;;;;;;4477839;31;20073;-75
2022/05/16 06:17:20;;;;;;;2.25;0.82;;;20.30;54.20;;;;;;4477751;31;20080;-74
2022/05/16 06:19:46;;;;;;;1.98;1.00;;;20.30;54.20;;;;;;4477651;31;20065;-75
2022/05/16 06:22:12;;;;;;;0.70;0.60;;;20.30;54.20;;;;;;4477883;31;20159;-74
2022/05/16 06:27:22;;;;;;;1.13;0.60;;;20.30;54.20;;;;;;4477357;32;20121;-75
2022/05/16 06:29:48;;;;;;;1.20;0.80;;;20.30;54.20;;;;;;4477361;32;20061;-75
2022/05/16 06:32:14;;;;;;;1.05;0.77;;;20.30;54.20;;;;;;4477554;31;20070;-75
2022/05/16 06:34:48;;;;;;;;;;;20.30;54.20;;;;;;4478268;31;20099;-74
2022/05/16 06:37:15;;;;;;;1.52;0.70;;;20.30;54.20;;;;;;4476164;32;19980;-74
2022/05/16 06:39:40;;;;;;;1.20;0.60;;;20.30;54.30;;;;;;4476409;32;20097;-74
2022/05/16 06:42:07;;;;;;;1.45;0.70;;;20.30;54.30;;;;;;4477120;31;20384;-75
2022/05/16 06:44:32;;;;;;;0.80;0.47;;;20.30;54.30;;;;;;4477297;32;20124;-75
2022/05/16 06:46:58;;;;;;;2.13;0.80;;;20.30;54.20;;;;;;4475515;32;20104;-76
2022/05/16 06:49:24;;;;;;;1.13;0.50;;;20.30;54.30;;;;;;4477332;31;20154;-77
2022/05/16 06:51:50;;;;;;;1.75;0.60;;;20.30;54.30;;;;;;4476972;31;20088;-77
2022/05/16 06:54:16;;;;;;;3.13;0.80;;;20.40;54.30;;;;;;4477436;32;20069;-77
2022/05/16 06:56:42;;;;;;;3.75;0.90;;;20.40;54.20;;;;;;4475817;32;20077;-77
2022/05/16 06:59:07;;;;;;;1.42;0.80;;;20.50;54.20;;;;;;4477221;31;20070;-76
2022/05/16 07:01:34;;;;;;;3.30;1.10;;;20.50;54.10;;;;;;4477005;32;20517;-76
2022/05/16 07:04:00;;;;;;;3.67;1.20;;;20.50;54.00;;;;;;4475502;32;20467;-76
2022/05/16 07:06:26;;;;;;;7.53;1.30;;;20.60;55.00;;;;;;4477076;31;20074;-76
2022/05/16 07:08:53;;;;;;;3.53;1.13;;;20.60;54.00;;;;;;4476958;32;20143;-76
2022/05/16 07:11:19;;;;;;;3.60;1.02;;;20.70;54.00;;;;;;4476277;31;20403;-76
2022/05/16 07:13:45;;;;;;;3.20;1.02;;;20.70;54.00;;;;;;4476937;32;20077;-76
2022/05/16 07:16:10;;;;;;;3.92;1.10;;;20.70;54.00;;;;;;4476714;31;20088;-71
2022/05/16 07:18:36;;;;;;;2.55;1.10;;;20.80;54.00;;;;;;4476828;32;20087;-71
2022/05/16 07:21:04;;;;;;;2.88;1.20;;;20.80;53.90;;;;;;4476400;32;20179;-71
2022/05/16 07:23:30;;;;;;;4.78;1.30;;;20.80;53.80;;;;;;4476874;31;20113;-71
2022/05/16 07:28:40;;;;;;;3.28;1.13;;;20.90;53.50;;;;;;4475558;32;20069;-71
2022/05/16 07:31:07;;;;;;;4.15;0.93;;;20.90;53.50;;;;;;4476518;31;20155;-71
2022/05/16 07:33:34;;;;;;;2.30;1.10;;;20.90;53.50;;;;;;4476783;32;20131;-72
2022/05/16 07:36:00;;;;;;;4.25;1.20;;;20.90;53.50;;;;;;4476291;31;20171;-71
2022/05/16 07:38:26;;;;;;;3.33;1.05;;;20.90;53.50;;;;;;4476771;32;20089;-71
2022/05/16 07:40:53;;;;;;;3.35;1.38;;;21.00;53.50;;;;;;4488395;31;20167;-71
2022/05/16 07:43:20;;;;;;;4.35;1.58;;;21.00;53.40;;;;;;4476736;32;20092;-71
2022/05/16 07:45:46;;;;;;;2.45;1.10;;;21.00;53.50;;;;;;4475955;32;20529;-71
2022/05/16 07:48:13;;;;;;;4.82;1.65;;;21.00;53.40;;;;;;4476346;32;20521;-71
2022/05/16 07:50:40;;;;;;;4.60;1.33;;;21.10;53.50;;;;;;4476369;32;20223;-70
2022/05/16 07:53:14;;;;;;;5.32;1.63;;;21.10;53.50;;;;;;4475032;32;20549;-71
2022/05/16 07:55:41;;;;;;;;;;;21.10;53.50;;;;;;4477065;31;20166;-71
2022/05/16 07:58:08;;;;;;;4.45;1.45;;;21.10;53.20;;;;;;4476422;32;19982;-71
2022/05/16 08:00:33;;;;;;;4.30;1.48;;;21.20;53.30;;;;;;4476006;32;20070;-71
2022/05/16 08:02:59;;;;;;;5.50;1.65;;;21.20;53.30;;;;;;4475921;32;20161;-69
2022/05/16 08:05:26;;;;;;;6.68;1.60;;;21.20;53.20;;;;;;4475178;32;20069;-71
2022/05/16 08:10:39;;;;;;;5.30;1.58;;;21.20;53.00;;;;;;4476563;32;20077;-71
2022/05/16 08:13:08;;;;;;;4.45;1.40;;;21.20;52.80;;;;;;4476536;32;20088;-71
2022/05/16 08:15:36;;;;;;;7.25;1.45;;;21.30;52.70;;;;;;4475806;32;20093;-71
2022/05/16 08:18:02;;;;;;;6.28;1.58;;;21.30;52.50;;;;;;4476286;32;20190;-71
2022/05/16 08:20:29;;;;;;;6.68;2.00;;;21.30;52.40;;;;;;4475799;32;20525;-71
2022/05/16 08:22:55;;;;;;;4.88;1.73;;;21.30;52.20;;;;;;4477216;32;20640;-71
2022/05/16 08:25:21;;;;;;;4.68;1.75;;;21.40;52.30;;;;;;4479516;31;20166;-71
2022/05/16 08:27:50;;;;;;;4.72;1.88;;;21.40;52.20;;;;;;4479130;32;20087;-71
2022/05/16 08:30:17;;;;;;;6.40;1.70;;;21.40;52.20;;;;;;4479490;31;20097;-71
2022/05/16 08:32:43;;;;;;;5.60;1.80;;;21.40;52.10;;;;;;4479108;31;20576;-71
2022/05/16 08:35:11;;;;;;;11.45;2.08;;;21.40;52.00;;;;;;4478781;31;20166;-72
2022/05/16 08:40:32;;;;;;;3.83;1.40;;;21.50;51.80;;;;;;4479343;32;20088;-77
2022/05/16 08:43:08;;;;;;;5.70;2.05;;;21.50;51.80;;;;;;4479297;32;20077;-77
2022/05/16 08:45:40;;;;;;;6.75;2.15;;;21.50;51.60;;;;;;4479069;32;20081;-77
2022/05/16 08:48:15;;;;;;;8.50;1.95;;;21.60;51.70;;;;;;4478902;31;20081;-77
2022/05/16 08:51:05;;;;;;;5.00;1.67;;;21.60;51.40;;;;;;4479427;32;20089;-77
2022/05/16 08:53:52;;;;;;;4.07;1.85;;;21.70;51.30;;;;;;4479426;32;20080;-76
2022/05/16 08:56:26;;;;;;;10.65;2.55;;;21.70;50.90;;;;;;4477904;32;20081;-73
2022/05/16 08:59:08;;;;;;;6.80;2.08;;;21.80;50.80;;;;;;4479025;31;20061;-77
2022/05/16 09:01:47;;;;;;;6.88;2.10;;;21.80;50.50;;;;;;4478970;31;20534;-75
2022/05/16 09:04:25;;;;;;;7.65;2.10;;;21.90;50.00;;;;;;4479244;31;20135;-75
2022/05/16 09:07:09;;;;;;;6.43;2.00;;;21.90;49.70;;;;;;4478818;31;20101;-77
2022/05/16 09:09:51;;;;;;;10.50;2.08;;;22.00;49.60;;;;;;4478299;32;20612;-76
2022/05/16 09:12:26;;;;;;;7.07;1.70;;;22.00;49.40;;;;;;4478705;31;20085;-76
2022/05/16 09:15:11;;;;;;;7.45;1.90;;;22.00;49.40;;;;;;4478735;31;20182;-76
2022/05/16 09:17:58;;;;;;;6.93;1.75;;;22.00;49.40;;;;;;4478562;31;20155;-76
2022/05/16 09:20:53;;;;;;;5.78;1.88;;;22.00;49.20;;;;;;4478612;31;20062;-73
2022/05/16 09:23:38;;;;;;;7.32;1.92;;;22.00;49.40;;;;;;4478286;31;20418;-76
2022/05/16 09:26:22;;;;;;;6.70;1.85;;;22.00;49.50;;;;;;4478451;31;20081;-77
2022/05/16 09:29:03;;;;;;;6.32;2.25;;;22.00;49.50;;;;;;4478903;31;20077;-77
2022/05/16 09:31:35;;;;;;;5.97;2.10;;;22.10;49.60;;;;;;4477152;31;20077;-77
2022/05/16 09:34:01;;;;;;;4.57;2.00;;;22.10;49.60;;;;;;4477808;32;20095;-77
2022/05/16 09:36:39;;;;;;;6.15;1.60;;;22.10;49.60;;;;;;4478031;31;20159;-77
2022/05/16 09:39:07;;;;;;;5.78;1.95;;;22.10;49.30;;;;;;4478640;31;20080;-77
2022/05/16 09:41:34;;;;;;;5.70;2.40;;;22.10;49.40;;;;;;4478435;32;20117;-77
2022/05/16 09:44:25;;;;;;;6.85;2.00;;;22.10;49.50;;;;;;4477027;31;20077;-76
2022/05/16 09:47:19;;;;;;;7.80;2.15;;;22.20;49.60;;;;;;4478285;31;20108;-77
2022/05/16 09:50:03;;;;;;;10.18;2.22;;;22.20;49.50;;;;;;4478355;31;20085;-77
2022/05/16 09:52:31;;;;;;;6.50;2.10;;;22.20;49.40;;;;;;4478169;31;20088;-77
2022/05/16 09:55:10;;;;;;;6.85;2.05;;;22.30;49.40;;;;;;4478107;31;20179;-76
2022/05/16 09:57:48;;;;;;;4.25;1.73;;;22.30;49.10;;;;;;4478169;32;20505;-76
2022/05/16 10:00:40;;;;;;;8.35;2.08;;;22.40;49.00;;;;;;4478074;31;20403;-77
2022/05/16 10:03:17;;;;;;;8.48;1.88;;;22.50;49.00;;;;;;4478015;31;20507;-77
2022/05/16 10:05:47;;;;;;;7.00;1.88;;;22.50;49.00;;;;;;4478063;31;20108;-76
2022/05/16 10:08:22;;;;;;;9.20;2.42;;;22.60;48.80;;;;;;4478018;32;20121;-76
2022/05/16 10:10:48;;;;;;;8.52;2.33;;;22.70;48.80;;;;;;4478128;31;20144;-76
2022/05/16 10:13:16;;;;;;;9.65;2.15;;;22.80;48.60;;;;;;4477674;31;20095;-77
2022/05/16 10:15:43;;;;;;;8.48;2.47;;;22.80;48.50;;;;;;4477216;31;20581;-76
2022/05/16 10:18:16;;;;;;;7.00;2.10;;;22.80;48.60;;;;;;4477844;32;20096;-74
2022/05/16 10:20:47;;;;;;;8.48;2.13;;;22.70;48.70;;;;;;4477945;31;20093;-75
2022/05/16 10:23:25;;;;;;;8.07;2.20;;;22.80;48.80;;;;;;4477757;32;20278;-76
2022/05/16 10:25:54;;;;;;;5.05;2.10;;;22.90;48.60;;;;;;4477917;32;20546;-76
2022/05/16 10:28:35;;;;;;;6.63;2.20;;;22.90;48.60;;;;;;4477457;32;20092;-74
2022/05/16 10:33:51;;;;;;;9.63;2.05;;;23.00;48.10;;;;;;4477761;32;20150;-75
2022/05/16 10:36:27;;;;;;;5.80;2.13;;;23.10;47.90;;;;;;4477248;31;20076;-74
2022/05/16 10:39:10;;;;;;;7.75;1.98;;;23.20;47.60;;;;;;4477488;32;20117;-75
2022/05/16 10:41:50;;;;;;;8.63;2.15;;;23.20;47.60;;;;;;4477513;32;20081;-75
2022/05/16 10:44:38;;;;;;;7.28;2.25;;;23.20;47.60;;;;;;4477494;31;20097;-75
2022/05/16 10:47:22;;;;;;;5.35;2.10;;;23.10;47.60;;;;;;4477203;32;20128;-75
2022/05/16 10:50:03;;;;;;;8.20;2.28;;;23.10;47.10;;;;;;4477379;31;20090;-74
2022/05/16 10:52:53;;;;;;;9.30;2.05;;;23.10;47.00;;;;;;4477358;31;20081;-74
2022/05/16 10:55:19;;;;;;;8.02;2.22;;;23.10;47.00;;;;;;4477299;31;20073;-75
2022/05/16 10:58:13;;;;;;;7.38;1.90;;;23.10;47.20;;;;;;4476917;31;20542;-74
2022/05/16 11:01:06;;;;;;;6.30;1.80;;;23.00;47.20;;;;;;4477215;31;20065;-75
2022/05/16 11:03:55;;;;;;;8.75;2.28;;;23.10;47.20;;;;;;4477113;31;20096;-75
2022/05/16 11:06:42;;;;;;;10.75;2.70;;;23.10;46.90;;;;;;4477179;31;20073;-75
2022/05/16 11:09:23;;;;;;;8.10;2.78;;;23.10;46.70;;;;;;4477110;31;20077;-75
2022/05/16 11:12:06;;;;;;;7.45;2.20;;;23.20;46.60;;;;;;4477255;31;20074;-74
2022/05/16 11:15:12;;;;;;;10.13;2.50;;;23.20;46.40;;;;;;4477232;32;20096;-73
2022/05/16 11:17:59;;;;;;;11.57;2.40;;;23.30;46.50;;;;;;4459068;32;20070;-74
2022/05/16 11:20:47;;;;;;;8.73;2.25;;;23.30;46.10;;;;;;4475905;31;20081;-75
2022/05/16 11:23:43;;;;;;;7.43;2.08;;;23.40;46.00;;;;;;4476680;31;20128;-75
2022/05/16 11:26:51;;;;;;;7.63;2.45;;;23.40;46.10;;;;;;4476914;31;20117;-75
2022/05/16 11:29:44;;;;;;;8.70;2.20;;;23.40;46.20;;;;;;4468224;31;20077;-75
2022/05/16 11:32:32;;;;;;;5.50;1.92;;;23.40;46.20;;;;;;4473625;32;20402;-74
2022/05/16 11:35:06;;;;;;;7.25;1.88;;;23.40;46.20;;;;;;4476940;31;20159;-74
2022/05/16 11:37:53;;;;;;;5.60;2.00;;;23.40;46.20;;;;;;4476716;31;20085;-75
2022/05/16 11:40:53;;;;;;;9.25;2.40;;;23.30;46.20;;;;;;4476638;32;20229;-75
2022/05/16 11:43:28;;;;;;;7.57;2.45;;;23.30;46.30;;;;;;4476625;32;20081;-74
2022/05/16 11:46:37;;;;;;;6.18;2.35;;;23.20;46.20;;;;;;4475508;32;20099;-74
2022/05/16 11:49:10;;;;;;;12.10;2.75;;;23.20;46.30;;;;;;4476637;32;20423;-74
2022/05/16 11:52:17;;;;;;;12.55;2.58;;;23.10;46.50;;;;;;4476833;32;20061;-75
2022/05/16 11:54:54;;;;;;;5.97;1.85;;;23.10;46.40;;;;;;4473887;32;20082;-75
2022/05/16 12:00:32;;;;;;;8.07;2.25;;;23.10;46.30;;;;;;4476752;32;20425;-74
2022/05/16 12:03:07;;;;;;;7.75;2.58;;;23.10;46.10;;;;;;4476589;32;20624;-75
2022/05/16 12:05:48;;;;;;;7.57;2.15;;;23.10;46.30;;;;;;4476335;32;20077;-74
2022/05/16 12:08:32;;;;;;;4.95;2.50;;;23.10;46.50;;;;;;4476608;32;20081;-74
2022/05/16 12:11:03;;;;;;;8.20;2.10;;;23.10;46.70;;;;;;4476133;32;20117;-74
2022/05/16 12:13:33;;;;;;;8.07;2.45;;;23.10;46.70;;;;;;4476230;32;20423;-74
2022/05/16 12:16:19;;;;;;;8.55;2.85;;;23.10;46.70;;;;;;4476762;32;20502;-74
2022/05/16 12:19:08;;;;;;;6.85;2.55;;;23.10;46.80;;;;;;4475902;32;20187;-73
2022/05/16 12:21:35;;;;;;;9.57;2.40;;;23.10;47.00;;;;;;4475125;32;20129;-76
2022/05/16 12:24:04;;;;;;;5.55;2.38;;;23.10;47.30;;;;;;4476371;32;20081;-76
2022/05/16 12:26:52;;;;;;;7.40;2.35;;;23.10;47.70;;;;;;4476417;32;20069;-74
2022/05/16 12:29:21;;;;;;;6.10;2.20;;;23.10;47.70;;;;;;4476189;32;20065;-75
2022/05/16 12:31:50;;;;;;;8.63;2.30;;;23.10;47.70;;;;;;4475794;32;20092;-74
2022/05/16 12:34:35;;;;;;;6.72;2.30;;;23.10;47.80;;;;;;4476563;32;20143;-75
2022/05/16 12:37:05;;;;;;;6.70;2.30;;;23.10;47.30;;;;;;4476285;32;20080;-75
2022/05/16 12:39:48;;;;;;;9.60;2.35;;;23.20;47.10;;;;;;4476126;32;20154;-75
2022/05/16 12:42:26;;;;;;;6.35;2.00;;;23.20;46.60;;;;;;4475834;32;20583;-74
2022/05/16 12:44:57;;;;;;;6.38;2.08;;;23.30;46.50;;;;;;4474831;32;20223;-74
2022/05/16 12:47:48;;;;;;;7.35;2.13;;;23.30;46.60;;;;;;4475741;32;20259;-74
2022/05/16 12:50:17;;;;;;;6.47;2.50;;;23.30;46.50;;;;;;4476074;32;20120;-74
2022/05/16 12:52:57;;;;;;;6.90;2.20;;;23.30;46.70;;;;;;4476140;32;20085;-74
2022/05/16 12:55:38;;;;;;;8.27;1.98;;;23.30;46.70;;;;;;4475967;32;20098;-74
2022/05/16 12:58:14;;;;;;;7.10;2.00;;;23.20;46.70;;;;;;4476218;32;20288;-74
2022/05/16 13:00:46;;;;;;;8.65;2.30;;;23.20;46.80;;;;;;4475934;32;20210;-74
2022/05/16 13:03:45;;;;;;;6.32;2.10;;;23.30;46.90;;;;;;4475921;32;20077;-75
2022/05/16 13:06:24;;;;;;;9.50;2.67;;;23.20;47.00;;;;;;4475591;32;20085;-74
2022/05/16 13:09:15;;;;;;;10.23;2.60;;;23.20;47.40;;;;;;4476735;32;20218;-74
2022/05/16 13:11:57;;;;;;;14.40;4.00;;;23.30;48.10;;;;;;4478750;31;20203;-74
2022/05/16 13:14:57;;;;;;;12.15;3.38;;;23.20;48.50;;;;;;4479241;31;20523;-74
2022/05/16 13:17:40;;;;;;;12.00;3.35;;;23.30;49.40;;;;;;4469356;31;20097;-74
2022/05/16 13:20:16;;;;;;;13.90;3.47;;;23.30;49.40;;;;;;4478816;31;20131;-74
2022/05/16 13:22:44;;;;;;;12.63;3.10;;;23.30;49.90;;;;;;4478507;32;20387;-74
2022/05/16 13:25:11;;;;;;;10.88;3.33;;;23.30;49.70;;;;;;4478541;32;20658;-74
2022/05/16 13:30:26;;;;;;;11.25;3.13;;;23.40;49.80;;;;;;4478325;32;20088;-73
2022/05/16 13:32:53;;;;;;;6.63;2.63;;;23.50;49.80;;;;;;4478434;31;20077;-74
2022/05/16 13:35:36;;;;;;;10.98;3.20;;;23.50;49.70;;;;;;4478568;31;20077;-74
2022/05/16 13:38:05;;;;;;;9.10;2.50;;;23.50;49.50;;;;;;4478691;31;20509;-75
2022/05/16 13:40:41;;;;;;;12.15;3.30;;;23.50;49.30;;;;;;4478288;31;20065;-74
2022/05/16 13:43:21;;;;;;;9.15;3.05;;;23.50;49.10;;;;;;4478186;31;20480;-74
2022/05/16 13:45:47;;;;;;;9.88;2.75;;;23.40;49.20;;;;;;4478457;31;20085;-74